createdAt,value
2018-04-15T00:01:35.811Z,12.27
2018-04-15T00:04:04.956Z,12.22
2018-04-15T00:06:33.303Z,12.18
2018-04-15T00:09:02.429Z,12.16
2018-04-15T00:11:30.772Z,12.16
2018-04-15T00:13:59.911Z,12.16
2018-04-15T00:16:28.231Z,12.18
2018-04-15T00:18:56.575Z,12.16
2018-04-15T00:21:24.917Z,12.16
2018-04-15T00:23:54.021Z,12.16
2018-04-15T00:26:23.136Z,12.15
2018-04-15T00:28:51.507Z,12.13
2018-04-15T00:31:19.920Z,12.13
2018-04-15T00:33:48.307Z,12.13
2018-04-15T00:36:18.085Z,12.10
2018-04-15T00:38:47.158Z,12.08
2018-04-15T00:41:15.737Z,12.07
2018-04-15T00:43:44.066Z,12.06
2018-04-15T00:46:12.465Z,12.05
2018-04-15T00:48:40.829Z,12.05
2018-04-15T00:51:09.155Z,12.03
2018-04-15T00:53:59.319Z,12.01
2018-04-15T00:56:27.659Z,11.97
2018-04-15T00:58:56.775Z,11.95
2018-04-15T01:01:25.402Z,11.93
2018-04-15T01:03:54.146Z,11.94
2018-04-15T01:06:22.524Z,11.94
2018-04-15T01:08:51.613Z,11.92
2018-04-15T01:11:20.703Z,11.90
2018-04-15T01:13:49.033Z,11.90
2018-04-15T01:16:17.350Z,11.90
2018-04-15T01:18:45.720Z,11.91
2018-04-15T01:21:14.072Z,11.91
2018-04-15T01:23:42.412Z,11.90
2018-04-15T01:26:10.829Z,11.88
2018-04-15T01:28:39.154Z,11.86
2018-04-15T01:31:07.503Z,11.85
2018-04-15T01:33:35.841Z,11.84
2018-04-15T01:36:04.973Z,11.83
2018-04-15T01:38:33.300Z,11.83
2018-04-15T01:41:01.648Z,11.85
2018-04-15T01:43:29.967Z,11.86
2018-04-15T01:45:58.298Z,11.87
2018-04-15T01:48:26.609Z,11.87
2018-04-15T01:50:54.984Z,11.87
2018-04-15T01:53:23.301Z,11.88
2018-04-15T01:55:51.970Z,11.89
2018-04-15T01:58:20.308Z,11.87
2018-04-15T02:00:48.657Z,11.88
2018-04-15T02:03:16.969Z,11.88
2018-04-15T02:05:45.303Z,11.87
2018-04-15T02:08:13.635Z,11.88
2018-04-15T02:10:41.967Z,11.88
2018-04-15T02:13:10.320Z,11.86
2018-04-15T02:15:38.680Z,11.86
2018-04-15T02:18:07.002Z,11.87
2018-04-15T02:20:35.333Z,11.85
2018-04-15T02:23:03.685Z,11.85
2018-04-15T02:25:32.025Z,11.86
2018-04-15T02:28:00.375Z,11.88
2018-04-15T02:30:28.709Z,11.88
2018-04-15T02:32:58.614Z,11.91
2018-04-15T02:35:26.939Z,11.92
2018-04-15T02:37:56.045Z,11.94
2018-04-15T02:40:25.167Z,11.95
2018-04-15T02:42:53.495Z,11.95
2018-04-15T02:45:21.824Z,11.96
2018-04-15T02:47:50.191Z,11.96
2018-04-15T02:50:18.989Z,11.95
2018-04-15T02:52:48.089Z,11.97
2018-04-15T02:55:16.480Z,11.99
2018-04-15T02:57:44.823Z,12.01
2018-04-15T03:00:13.173Z,12.02
2018-04-15T03:02:41.504Z,12.02
2018-04-15T03:05:10.608Z,12.02
2018-04-15T03:07:40.078Z,11.99
2018-04-15T03:10:08.415Z,11.99
2018-04-15T03:12:36.747Z,12.00
2018-04-15T03:15:05.057Z,12.00
2018-04-15T03:17:34.159Z,12.02
2018-04-15T03:20:03.287Z,12.06
2018-04-15T03:22:31.603Z,12.07
2018-04-15T03:24:59.907Z,12.09
2018-04-15T03:27:28.248Z,12.07
2018-04-15T03:29:56.602Z,12.03
2018-04-15T03:32:24.950Z,12.03
2018-04-15T03:34:54.028Z,12.02
2018-04-15T03:37:22.490Z,12.02
2018-04-15T03:39:50.822Z,12.01
2018-04-15T03:42:19.903Z,12.02
2018-04-15T03:44:48.306Z,12.02
2018-04-15T03:47:17.394Z,12.06
2018-04-15T03:49:46.950Z,12.08
2018-04-15T03:52:15.320Z,12.10
2018-04-15T03:54:43.695Z,12.10
2018-04-15T03:57:12.175Z,12.10
2018-04-15T03:59:40.526Z,12.11
2018-04-15T04:02:08.851Z,12.10
2018-04-15T04:04:37.166Z,12.08
2018-04-15T04:07:05.493Z,12.08
2018-04-15T04:09:33.837Z,12.09
2018-04-15T04:12:02.169Z,12.11
2018-04-15T04:14:30.520Z,12.12
2018-04-15T04:16:59.606Z,12.13
2018-04-15T04:19:46.600Z,12.14
2018-04-15T04:22:32.777Z,12.16
2018-04-15T04:38:30.889Z,12.18
2018-04-15T04:40:59.988Z,12.20
2018-04-15T04:43:28.318Z,12.20
2018-04-15T04:45:56.648Z,12.21
2018-04-15T04:48:25.006Z,12.22
2018-04-15T04:50:54.104Z,12.25
2018-04-15T04:53:22.488Z,12.26
2018-04-15T04:55:51.610Z,12.27
2018-04-15T04:58:19.947Z,12.28
2018-04-15T05:00:48.921Z,12.27
2018-04-15T05:03:17.229Z,12.27
2018-04-15T05:05:45.588Z,12.30
2018-04-15T05:08:13.960Z,12.32
2018-04-15T05:10:42.639Z,12.34
2018-04-15T05:13:10.976Z,12.37
2018-04-15T05:15:40.115Z,12.38
2018-04-15T05:18:08.463Z,12.39
2018-04-15T05:20:37.605Z,12.41
2018-04-15T05:23:05.929Z,12.42
2018-04-15T05:25:34.650Z,12.43
2018-04-15T05:28:02.988Z,12.44
2018-04-15T05:30:31.332Z,12.48
2018-04-15T05:32:59.635Z,12.51
2018-04-15T05:35:28.732Z,12.57
2018-04-15T05:37:57.084Z,12.60
2018-04-15T05:40:25.662Z,12.67
2018-04-15T05:42:54.004Z,12.73
2018-04-15T05:45:23.104Z,12.78
2018-04-15T05:47:51.438Z,12.80
2018-04-15T05:50:19.764Z,12.84
2018-04-15T05:52:48.861Z,12.90
2018-04-15T05:55:17.984Z,12.97
2018-04-15T05:57:47.182Z,13.06
2018-04-15T06:00:16.425Z,13.12
2018-04-15T06:02:44.737Z,13.19
2018-04-15T06:05:13.120Z,13.30
2018-04-15T06:07:42.220Z,13.34
2018-04-15T06:10:11.314Z,13.41
2018-04-15T06:12:39.642Z,13.52
2018-04-15T06:15:08.252Z,13.62
2018-04-15T06:17:36.580Z,13.71
2018-04-15T06:20:04.925Z,13.80
2018-04-15T06:22:33.245Z,13.88
2018-04-15T06:25:01.714Z,13.91
2018-04-15T06:27:30.046Z,13.92
2018-04-15T06:29:58.401Z,13.92
2018-04-15T06:32:26.715Z,13.97
2018-04-15T06:34:55.050Z,14.04
2018-04-15T06:37:24.238Z,14.09
2018-04-15T06:39:52.577Z,14.20
2018-04-15T06:42:20.899Z,14.33
2018-04-15T06:44:49.231Z,14.49
2018-04-15T06:47:17.557Z,14.70
2018-04-15T06:49:45.879Z,14.88
2018-04-15T06:52:14.979Z,14.96
2018-04-15T06:54:44.063Z,15.02
2018-04-15T06:57:12.395Z,15.10
2018-04-15T06:59:40.715Z,15.22
2018-04-15T07:02:09.023Z,15.36
2018-04-15T07:04:38.627Z,15.48
2018-04-15T07:07:07.108Z,15.56
2018-04-15T07:09:35.437Z,15.62
2018-04-15T07:12:03.759Z,15.71
2018-04-15T07:14:32.218Z,15.90
2018-04-15T07:17:00.539Z,16.33
2018-04-15T07:19:29.609Z,16.70
2018-04-15T07:21:57.917Z,16.89
2018-04-15T07:24:26.216Z,16.94
2018-04-15T07:26:55.313Z,16.89
2018-04-15T07:29:24.397Z,16.82
2018-04-15T07:31:53.483Z,16.86
2018-04-15T07:34:21.797Z,16.71
2018-04-15T07:36:50.131Z,16.47
2018-04-15T07:39:18.446Z,16.26
2018-04-15T07:41:47.525Z,16.19
2018-04-15T07:44:15.835Z,16.02
2018-04-15T07:46:44.925Z,15.90
2018-04-15T07:49:18.541Z,15.87
2018-04-15T07:51:47.125Z,15.82
2018-04-15T07:54:16.215Z,15.83
2018-04-15T07:56:45.311Z,15.88
2018-04-15T07:59:14.405Z,15.97
2018-04-15T08:01:43.482Z,16.06
2018-04-15T08:04:11.801Z,16.05
2018-04-15T08:06:40.117Z,16.07
2018-04-15T08:09:08.431Z,16.17
2018-04-15T08:11:36.770Z,16.30
2018-04-15T08:14:05.081Z,16.58
2018-04-15T08:16:34.327Z,16.67
2018-04-15T08:19:03.403Z,16.79
2018-04-15T08:21:31.711Z,16.84
2018-04-15T08:24:00.015Z,16.94
2018-04-15T08:26:28.578Z,16.96
2018-04-15T08:28:57.651Z,16.90
2018-04-15T08:31:25.955Z,16.80
2018-04-15T08:33:55.098Z,16.84
2018-04-15T08:36:23.412Z,16.84
2018-04-15T08:38:51.734Z,16.87
2018-04-15T08:41:20.055Z,16.89
2018-04-15T08:43:48.370Z,16.98
2018-04-15T08:46:17.455Z,17.00
2018-04-15T08:48:46.546Z,17.12
2018-04-15T08:51:14.864Z,17.27
2018-04-15T08:53:43.167Z,17.42
2018-04-15T08:56:11.493Z,17.65
2018-04-15T08:58:39.837Z,17.76
2018-04-15T09:01:08.129Z,17.90
2018-04-15T09:03:37.259Z,18.08
2018-04-15T09:06:05.605Z,18.52
2018-04-15T09:08:33.898Z,19.07
2018-04-15T09:11:02.220Z,19.52
2018-04-15T09:13:31.755Z,19.76
2018-04-15T09:16:00.064Z,20.39
2018-04-15T09:18:28.416Z,21.14
2018-04-15T09:20:58.502Z,21.65
2018-04-15T09:23:26.835Z,22.22
2018-04-15T09:25:55.142Z,22.80
2018-04-15T09:28:23.459Z,23.26
2018-04-15T09:30:58.142Z,23.49
2018-04-15T09:33:26.467Z,23.91
2018-04-15T09:35:55.554Z,24.49
2018-04-15T09:38:23.858Z,24.90
2018-04-15T09:40:52.261Z,25.02
2018-04-15T09:43:20.572Z,25.12
2018-04-15T09:45:48.891Z,25.16
2018-04-15T09:48:17.969Z,25.21
2018-04-15T09:50:46.307Z,25.04
2018-04-15T09:53:14.609Z,24.83
2018-04-15T09:55:42.937Z,24.70
2018-04-15T09:58:12.093Z,24.37
2018-04-15T10:00:40.447Z,23.95
2018-04-15T10:03:08.760Z,23.79
2018-04-15T10:05:37.069Z,23.78
2018-04-15T10:08:06.186Z,24.10
2018-04-15T10:10:35.258Z,24.00
2018-04-15T10:13:03.592Z,23.86
2018-04-15T10:15:31.892Z,23.41
2018-04-15T10:18:00.215Z,23.09
2018-04-15T10:20:29.294Z,22.56
2018-04-15T10:22:57.595Z,22.59
2018-04-15T10:25:27.207Z,23.42
2018-04-15T10:27:56.285Z,24.60
2018-04-15T10:30:24.605Z,25.48
2018-04-15T10:32:52.925Z,26.20
2018-04-15T10:35:22.017Z,26.29
2018-04-15T10:37:50.342Z,26.38
2018-04-15T10:40:18.684Z,26.89
2018-04-15T10:42:46.992Z,27.52
2018-04-15T10:45:15.314Z,28.14
2018-04-15T10:47:43.650Z,27.82
2018-04-15T10:50:12.190Z,26.97
2018-04-15T10:52:40.499Z,26.20
2018-04-15T10:55:17.591Z,25.64
2018-04-15T10:57:48.815Z,25.23
2018-04-15T11:00:20.865Z,24.92
2018-04-15T11:02:51.797Z,24.73
2018-04-15T11:05:20.302Z,24.54
2018-04-15T11:07:48.605Z,24.42
2018-04-15T11:10:16.963Z,24.48
2018-04-15T11:12:45.302Z,24.51
2018-04-15T11:15:13.629Z,24.89
2018-04-15T11:17:41.979Z,25.56
2018-04-15T11:20:11.046Z,25.85
2018-04-15T11:22:39.366Z,26.68
2018-04-15T11:25:08.505Z,27.83
2018-04-15T11:27:36.843Z,28.86
2018-04-15T11:30:05.940Z,30.16
2018-04-15T11:32:35.660Z,30.65
2018-04-15T11:35:04.742Z,30.70
2018-04-15T11:37:33.120Z,30.82
2018-04-15T11:40:01.441Z,30.54
2018-04-15T11:42:29.848Z,29.94
2018-04-15T11:44:58.376Z,29.59
2018-04-15T11:47:26.741Z,29.99
2018-04-15T11:49:55.112Z,30.76
2018-04-15T11:52:23.461Z,31.65
2018-04-15T11:54:51.808Z,31.79
2018-04-15T11:57:20.946Z,32.55
2018-04-15T11:59:49.270Z,33.56
2018-04-15T12:02:18.358Z,32.92
2018-04-15T12:04:46.704Z,33.10
2018-04-15T12:07:15.034Z,33.54
2018-04-15T12:09:43.380Z,33.34
2018-04-15T12:12:11.721Z,32.29
2018-04-15T12:14:40.812Z,31.24
2018-04-15T12:17:09.933Z,30.71
2018-04-15T12:19:38.240Z,30.42
2018-04-15T12:22:06.662Z,30.38
2018-04-15T12:24:35.004Z,30.80
2018-04-15T12:27:03.493Z,32.30
2018-04-15T12:29:32.165Z,34.26
2018-04-15T12:32:00.485Z,33.94
2018-04-15T12:34:28.805Z,33.74
2018-04-15T12:36:57.889Z,33.55
2018-04-15T12:39:26.219Z,33.24
2018-04-15T12:41:54.536Z,32.81
2018-04-15T12:44:22.857Z,32.11
2018-04-15T12:46:51.182Z,31.21
2018-04-15T12:49:19.527Z,30.22
2018-04-15T12:51:48.590Z,29.15
2018-04-15T12:54:17.035Z,28.09
2018-04-15T12:56:45.359Z,27.13
2018-04-15T12:59:13.693Z,26.48
2018-04-15T13:01:42.003Z,26.03
2018-04-15T13:04:10.450Z,25.63
2018-04-15T13:06:38.769Z,25.36
2018-04-15T13:09:07.085Z,25.31
2018-04-15T13:11:36.167Z,25.28
2018-04-15T13:14:04.473Z,25.31
2018-04-15T13:16:33.574Z,25.79
2018-04-15T13:19:02.663Z,29.28
2018-04-15T13:21:31.058Z,30.21
2018-04-15T13:24:00.117Z,29.60
2018-04-15T13:26:28.423Z,28.99
2018-04-15T13:28:56.801Z,28.15
2018-04-15T13:31:25.171Z,27.33
2018-04-15T13:33:53.505Z,26.68
2018-04-15T13:36:21.795Z,26.20
2018-04-15T13:38:50.105Z,25.72
2018-04-15T13:41:18.424Z,25.40
2018-04-15T13:43:47.513Z,25.26
2018-04-15T13:46:15.822Z,25.19
2018-04-15T13:48:44.157Z,25.13
2018-04-15T13:51:12.493Z,24.96
2018-04-15T13:53:40.814Z,24.67
2018-04-15T13:56:09.131Z,24.52
2018-04-15T13:58:38.220Z,24.37
2018-04-15T14:01:07.332Z,24.29
2018-04-15T14:03:36.416Z,24.41
2018-04-15T14:06:04.728Z,24.86
2018-04-15T14:08:33.061Z,25.25
2018-04-15T14:11:01.363Z,25.51
2018-04-15T14:13:29.673Z,25.36
2018-04-15T14:15:57.983Z,24.89
2018-04-15T14:18:26.313Z,24.31
2018-04-15T14:20:55.443Z,23.79
2018-04-15T14:23:23.771Z,23.32
2018-04-15T14:25:52.069Z,22.96
2018-04-15T14:28:21.137Z,22.63
2018-04-15T14:30:49.453Z,22.30
2018-04-15T14:33:19.179Z,21.91
2018-04-15T14:35:48.257Z,21.59
2018-04-15T14:38:16.578Z,21.00
2018-04-15T14:40:44.886Z,20.47
2018-04-15T14:43:13.202Z,20.03
2018-04-15T14:45:41.522Z,19.77
2018-04-15T14:48:09.842Z,19.57
2018-04-15T14:50:38.152Z,19.43
2018-04-15T14:53:07.958Z,19.31
2018-04-15T14:55:36.259Z,19.21
2018-04-15T14:58:05.350Z,19.07
2018-04-15T15:00:34.435Z,18.86
2018-04-15T15:03:02.869Z,18.63
2018-04-15T15:05:31.175Z,18.35
2018-04-15T15:07:59.493Z,18.06
2018-04-15T15:10:28.555Z,17.81
2018-04-15T15:12:56.861Z,17.50
2018-04-15T15:15:25.170Z,17.40
2018-04-15T15:17:53.475Z,17.36
2018-04-15T15:20:21.826Z,17.42
2018-04-15T15:22:50.901Z,17.53
2018-04-15T15:25:19.211Z,17.68
2018-04-15T15:27:48.363Z,17.81
2018-04-15T15:30:16.683Z,17.94
2018-04-15T15:32:45.735Z,18.05
2018-04-15T15:35:14.061Z,18.18
2018-04-15T15:37:43.178Z,18.33
2018-04-15T15:40:11.496Z,18.49
2018-04-15T15:42:39.827Z,18.91
2018-04-15T15:45:08.949Z,19.44
2018-04-15T15:47:37.246Z,20.06
2018-04-15T15:50:05.572Z,20.60
2018-04-15T15:52:33.888Z,20.89
2018-04-15T15:55:03.220Z,20.90
2018-04-15T15:57:31.528Z,20.68
2018-04-15T15:59:59.837Z,20.48
2018-04-15T16:02:28.934Z,20.40
2018-04-15T16:04:58.110Z,20.48
2018-04-15T16:07:27.031Z,20.61
2018-04-15T16:09:56.440Z,20.77
2018-04-15T16:12:25.570Z,20.88
2018-04-15T16:14:53.877Z,20.96
2018-04-15T16:17:22.286Z,20.99
2018-04-15T16:19:51.358Z,21.00
2018-04-15T16:22:19.690Z,20.92
2018-04-15T16:24:48.038Z,20.86
2018-04-15T16:27:16.344Z,20.78
2018-04-15T16:29:45.431Z,20.76
2018-04-15T16:32:13.758Z,20.75
2018-04-15T16:34:42.060Z,20.71
2018-04-15T16:37:11.005Z,20.67
2018-04-15T16:39:39.328Z,20.60
2018-04-15T16:42:07.622Z,20.49
2018-04-15T16:44:35.947Z,20.40
2018-04-15T16:47:05.030Z,20.30
2018-04-15T16:49:33.356Z,20.21
2018-04-15T16:52:01.678Z,20.10
2018-04-15T16:54:30.014Z,19.94
2018-04-15T16:56:58.328Z,19.82
2018-04-15T16:59:27.191Z,19.68
2018-04-15T17:01:55.495Z,19.52
2018-04-15T17:04:23.858Z,19.39
2018-04-15T17:06:52.177Z,19.31
2018-04-15T17:09:20.486Z,19.19
2018-04-15T17:11:49.572Z,19.07
2018-04-15T17:14:19.709Z,18.88
2018-04-15T17:16:48.041Z,18.71
2018-04-15T17:19:16.430Z,18.55
2018-04-15T17:21:44.750Z,18.40
2018-04-15T17:24:13.841Z,18.19
2018-04-15T17:26:42.163Z,17.99
2018-04-15T17:29:10.498Z,17.85
2018-04-15T17:31:38.817Z,17.71
2018-04-15T17:34:07.127Z,17.63
2018-04-15T17:36:35.442Z,17.54
2018-04-15T17:39:03.829Z,17.44
2018-04-15T17:41:32.157Z,17.38
2018-04-15T17:44:00.469Z,17.30
2018-04-15T17:46:29.059Z,17.21
2018-04-15T17:48:58.529Z,17.12
2018-04-15T17:51:26.941Z,17.02
2018-04-15T17:53:55.324Z,16.94
2018-04-15T17:56:23.646Z,16.84
2018-04-15T17:58:52.827Z,16.77
2018-04-15T18:01:21.200Z,16.69
2018-04-15T18:03:49.518Z,16.62
2018-04-15T18:06:18.829Z,16.54
2018-04-15T18:08:47.922Z,16.47
2018-04-15T18:11:17.017Z,16.39
2018-04-15T18:13:46.125Z,16.30
2018-04-15T18:16:14.455Z,16.20
2018-04-15T18:18:42.781Z,16.12
2018-04-15T18:21:11.852Z,16.01
2018-04-15T18:23:40.181Z,15.89
2018-04-15T18:26:08.488Z,15.77
2018-04-15T18:28:36.790Z,15.66
2018-04-15T18:31:05.123Z,15.56
2018-04-15T18:33:33.430Z,15.47
2018-04-15T18:36:01.743Z,15.38
2018-04-15T18:38:30.043Z,15.29
2018-04-15T18:40:59.141Z,15.20
2018-04-15T18:43:28.281Z,15.14
2018-04-15T18:45:56.616Z,15.05
2018-04-15T18:48:24.961Z,14.97
2018-04-15T18:50:53.949Z,14.91
2018-04-15T18:53:23.756Z,14.86
2018-04-15T18:55:52.066Z,14.82
2018-04-15T18:58:20.556Z,14.77
2018-04-15T19:00:48.831Z,14.73
2018-04-15T19:03:17.319Z,14.69
2018-04-15T19:05:45.636Z,14.67
2018-04-15T19:08:14.727Z,14.61
2018-04-15T19:10:43.047Z,14.56
2018-04-15T19:13:11.355Z,14.54
2018-04-15T19:15:39.653Z,14.50
2018-04-15T19:18:07.955Z,14.48
2018-04-15T19:20:37.030Z,14.48
2018-04-15T19:23:05.364Z,14.47
2018-04-15T19:25:33.690Z,14.46
2018-04-15T19:28:02.006Z,14.43
2018-04-15T19:30:31.098Z,14.41
2018-04-15T19:33:00.172Z,14.38
2018-04-15T19:35:28.492Z,14.38
2018-04-15T19:37:57.628Z,14.38
2018-04-15T19:40:26.081Z,14.36
2018-04-15T19:42:54.397Z,14.35
2018-04-15T19:45:22.696Z,14.34
2018-04-15T19:47:51.048Z,14.34
2018-04-15T19:50:19.418Z,14.34
2018-04-15T19:52:47.768Z,14.32
2018-04-15T19:55:16.086Z,14.32
2018-04-15T19:57:44.408Z,14.33
2018-04-15T20:00:12.947Z,14.33
2018-04-15T20:02:41.262Z,14.34
2018-04-15T20:05:09.644Z,14.33
2018-04-15T20:07:38.009Z,14.34
2018-04-15T20:10:06.310Z,14.33
2018-04-15T20:12:34.643Z,14.32
2018-04-15T20:15:03.815Z,14.35
2018-04-15T20:17:32.134Z,14.33
2018-04-15T20:20:00.443Z,14.33
2018-04-15T20:22:28.775Z,14.34
2018-04-15T20:24:57.883Z,14.33
2018-04-15T20:27:26.965Z,14.31
2018-04-15T20:29:55.650Z,14.32
2018-04-15T20:32:24.054Z,14.33
2018-04-15T20:34:53.167Z,14.34
2018-04-15T20:37:21.501Z,14.36
2018-04-15T20:39:49.839Z,14.39
2018-04-15T20:42:18.157Z,14.43
2018-04-15T20:44:46.480Z,14.46
2018-04-15T20:47:15.572Z,14.50
2018-04-15T20:49:44.639Z,14.49
2018-04-15T20:52:13.717Z,14.50
2018-04-15T20:54:42.014Z,14.51
2018-04-15T20:57:10.327Z,14.52
2018-04-15T20:59:39.426Z,14.51
2018-04-15T21:02:07.743Z,14.49
2018-04-15T21:04:36.076Z,14.50
2018-04-15T21:07:04.392Z,14.52
2018-04-15T21:09:32.700Z,14.52
2018-04-15T21:12:01.011Z,14.53
2018-04-15T21:14:29.396Z,14.53
2018-04-15T21:16:57.659Z,14.53
2018-04-15T21:19:26.037Z,14.54
2018-04-15T21:21:54.369Z,14.55
2018-04-15T21:24:23.437Z,14.56
2018-04-15T21:26:51.775Z,14.56
2018-04-15T21:29:20.071Z,14.56
2018-04-15T21:31:48.380Z,14.57
2018-04-15T21:34:16.705Z,14.58
2018-04-15T21:36:45.067Z,14.57
2018-04-15T21:39:14.136Z,14.56
2018-04-15T21:41:42.448Z,14.57
2018-04-15T21:44:10.909Z,14.56
2018-04-15T21:46:39.225Z,14.56
2018-04-15T21:49:08.310Z,14.57
2018-04-15T21:51:36.610Z,14.57
2018-04-15T21:54:05.695Z,14.59
2018-04-15T21:56:34.760Z,14.57
2018-04-15T21:59:03.080Z,14.55
2018-04-15T22:01:32.141Z,14.55
2018-04-15T22:04:00.465Z,14.53
2018-04-15T22:06:29.597Z,14.54
2018-04-15T22:08:57.909Z,14.53
2018-04-15T22:25:03.832Z,14.43
2018-04-15T22:27:32.146Z,14.43
2018-04-15T22:30:01.235Z,14.44
2018-04-15T22:32:31.018Z,14.44
2018-04-15T22:34:59.338Z,14.44
2018-04-15T22:37:28.419Z,14.44
2018-04-15T22:39:57.189Z,14.44
2018-04-15T22:42:25.505Z,14.44
2018-04-15T22:44:55.150Z,14.47
2018-04-15T22:47:23.467Z,14.48
2018-04-15T22:49:57.355Z,14.47
2018-04-15T22:52:25.707Z,14.47
2018-04-15T22:54:54.023Z,14.46
2018-04-15T22:57:22.325Z,14.46
2018-04-15T22:59:50.629Z,14.45
2018-04-15T23:02:19.707Z,14.45
2018-04-15T23:04:48.049Z,14.42
2018-04-15T23:07:16.370Z,14.40
2018-04-15T23:09:44.763Z,14.37
2018-04-15T23:12:13.067Z,14.30
2018-04-15T23:14:42.137Z,14.23
2018-04-15T23:17:10.460Z,14.16
2018-04-15T23:19:38.771Z,14.10
2018-04-15T23:22:07.076Z,14.05
2018-04-15T23:24:35.380Z,13.99
2018-04-15T23:27:04.437Z,13.96
2018-04-15T23:29:32.797Z,13.92
2018-04-15T23:32:01.104Z,13.90
2018-04-15T23:34:29.409Z,13.86
2018-04-15T23:36:57.727Z,13.81
2018-04-15T23:39:26.092Z,13.75
2018-04-15T23:41:54.371Z,13.74
2018-04-15T23:44:23.445Z,13.73
2018-04-15T23:46:51.783Z,13.74
2018-04-15T23:49:20.103Z,13.73
2018-04-15T23:51:48.505Z,13.71
2018-04-15T23:54:16.823Z,13.67
2018-04-15T23:56:50.565Z,13.67
2018-04-15T23:59:18.878Z,13.66
